sensor_id;sensor_type;location;lat;lon;timestamp;temperature;humidity
19966;DHT22;10144;50.874;4.762;2024-02-04T00:04:04;10.20;99.90
19966;DHT22;10144;50.874;4.762;2024-02-04T00:06:40;10.20;99.90
19966;DHT22;10144;50.874;4.762;2024-02-04T00:09:10;10.10;99.90
19966;DHT22;10144;50.874;4.762;2024-02-04T00:11:36;10.10;99.90
19966;DHT22;10144;50.874;4.762;2024-02-04T00:14:32;10.10;99.90
19966;DHT22;10144;50.874;4.762;2024-02-04T00:17:12;10.10;99.90
19966;DHT22;10144;50.874;4.762;2024-02-04T00:19:52;10.20;99.90
19966;DHT22;10144;50.874;4.762;2024-02-04T00:22:25;10.10;99.90
19966;DHT22;10144;50.874;4.762;2024-02-04T00:25:00;10.10;99.90
19966;DHT22;10144;50.874;4.762;2024-02-04T00:27:38;10.20;99.90
19966;DHT22;10144;50.874;4.762;2024-02-04T00:30:07;10.20;99.90
19966;DHT22;10144;50.874;4.762;2024-02-04T00:35:58;10.20;99.90
19966;DHT22;10144;50.874;4.762;2024-02-04T00:38:24;10.20;99.90
19966;DHT22;10144;50.874;4.762;2024-02-04T00:41:06;10.10;99.90
19966;DHT22;10144;50.874;4.762;2024-02-04T00:43:35;10.20;99.90
19966;DHT22;10144;50.874;4.762;2024-02-04T00:46:04;10.20;99.90
19966;DHT22;10144;50.874;4.762;2024-02-04T00:48:34;10.20;99.90
19966;DHT22;10144;50.874;4.762;2024-02-04T00:51:03;10.20;99.90
19966;DHT22;10144;50.874;4.762;2024-02-04T00:53:40;10.20;99.90
19966;DHT22;10144;50.874;4.762;2024-02-04T00:56:07;10.10;99.90
19966;DHT22;10144;50.874;4.762;2024-02-04T00:58:35;10.20;99.90
19966;DHT22;10144;50.874;4.762;2024-02-04T01:01:11;10.30;99.90
19966;DHT22;10144;50.874;4.762;2024-02-04T01:03:41;10.20;99.90
19966;DHT22;10144;50.874;4.762;2024-02-04T01:06:19;10.30;99.90
19966;DHT22;10144;50.874;4.762;2024-02-04T01:08:48;10.20;99.90
19966;DHT22;10144;50.874;4.762;2024-02-04T01:11:24;10.30;99.90
19966;DHT22;10144;50.874;4.762;2024-02-04T01:13:51;10.20;99.90
19966;DHT22;10144;50.874;4.762;2024-02-04T01:16:39;10.20;99.90
19966;DHT22;10144;50.874;4.762;2024-02-04T01:19:06;10.30;99.90
19966;DHT22;10144;50.874;4.762;2024-02-04T01:21:33;10.30;99.90
19966;DHT22;10144;50.874;4.762;2024-02-04T01:24:02;10.30;99.90
19966;DHT22;10144;50.874;4.762;2024-02-04T01:26:37;10.30;99.90
19966;DHT22;10144;50.874;4.762;2024-02-04T01:29:03;10.20;99.90
19966;DHT22;10144;50.874;4.762;2024-02-04T01:31:31;10.30;99.90
19966;DHT22;10144;50.874;4.762;2024-02-04T01:34:03;10.30;99.90
19966;DHT22;10144;50.874;4.762;2024-02-04T01:36:29;10.30;99.90
19966;DHT22;10144;50.874;4.762;2024-02-04T01:39:00;10.40;99.90
19966;DHT22;10144;50.874;4.762;2024-02-04T01:41:30;10.30;99.90
19966;DHT22;10144;50.874;4.762;2024-02-04T01:43:59;10.30;99.90
19966;DHT22;10144;50.874;4.762;2024-02-04T01:46:24;10.30;99.90
19966;DHT22;10144;50.874;4.762;2024-02-04T01:48:51;10.30;99.90
19966;DHT22;10144;50.874;4.762;2024-02-04T01:51:21;10.40;99.90
19966;DHT22;10144;50.874;4.762;2024-02-04T01:53:54;10.30;99.90
19966;DHT22;10144;50.874;4.762;2024-02-04T01:56:22;10.30;99.90
19966;DHT22;10144;50.874;4.762;2024-02-04T01:58:53;10.30;99.90
19966;DHT22;10144;50.874;4.762;2024-02-04T02:04:09;10.40;99.90
19966;DHT22;10144;50.874;4.762;2024-02-04T02:06:36;10.40;99.90
19966;DHT22;10144;50.874;4.762;2024-02-04T02:09:10;10.40;99.90
19966;DHT22;10144;50.874;4.762;2024-02-04T02:12:04;10.40;99.90
19966;DHT22;10144;50.874;4.762;2024-02-04T02:14:37;10.40;99.90
19966;DHT22;10144;50.874;4.762;2024-02-04T02:17:12;10.50;99.90
19966;DHT22;10144;50.874;4.762;2024-02-04T02:19:59;10.50;99.90
19966;DHT22;10144;50.874;4.762;2024-02-04T02:25:07;10.60;99.90
19966;DHT22;10144;50.874;4.762;2024-02-04T02:27:47;10.60;99.90
19966;DHT22;10144;50.874;4.762;2024-02-04T02:30:26;10.50;99.90
19966;DHT22;10144;50.874;4.762;2024-02-04T02:33:05;10.50;99.90
19966;DHT22;10144;50.874;4.762;2024-02-04T02:35:36;10.40;99.90
19966;DHT22;10144;50.874;4.762;2024-02-04T02:38:33;10.40;99.90
19966;DHT22;10144;50.874;4.762;2024-02-04T02:41:19;10.30;99.90
19966;DHT22;10144;50.874;4.762;2024-02-04T02:43:52;10.40;99.90
19966;DHT22;10144;50.874;4.762;2024-02-04T02:46:23;10.40;99.90
19966;DHT22;10144;50.874;4.762;2024-02-04T02:48:56;10.50;99.90
19966;DHT22;10144;50.874;4.762;2024-02-04T02:54:50;10.40;99.90
19966;DHT22;10144;50.874;4.762;2024-02-04T02:57:16;10.50;99.90
19966;DHT22;10144;50.874;4.762;2024-02-04T02:59:48;10.50;99.90
19966;DHT22;10144;50.874;4.762;2024-02-04T03:02:23;10.50;99.90
19966;DHT22;10144;50.874;4.762;2024-02-04T03:04:55;10.60;99.90
19966;DHT22;10144;50.874;4.762;2024-02-04T03:07:25;10.60;99.90
19966;DHT22;10144;50.874;4.762;2024-02-04T03:10:09;10.70;99.90
19966;DHT22;10144;50.874;4.762;2024-02-04T03:12:36;10.80;99.90
19966;DHT22;10144;50.874;4.762;2024-02-04T03:15:09;10.70;99.90
19966;DHT22;10144;50.874;4.762;2024-02-04T03:17:38;10.80;99.90
19966;DHT22;10144;50.874;4.762;2024-02-04T03:20:07;10.70;99.90
19966;DHT22;10144;50.874;4.762;2024-02-04T03:22:39;10.70;99.90
19966;DHT22;10144;50.874;4.762;2024-02-04T03:25:40;10.60;99.90
19966;DHT22;10144;50.874;4.762;2024-02-04T03:28:05;10.60;99.90
19966;DHT22;10144;50.874;4.762;2024-02-04T03:30:58;10.50;99.90
19966;DHT22;10144;50.874;4.762;2024-02-04T03:33:39;10.50;99.90
19966;DHT22;10144;50.874;4.762;2024-02-04T03:36:08;10.60;99.90
19966;DHT22;10144;50.874;4.762;2024-02-04T03:38:52;10.60;99.90
19966;DHT22;10144;50.874;4.762;2024-02-04T03:44:11;10.50;99.90
19966;DHT22;10144;50.874;4.762;2024-02-04T03:46:38;10.50;99.90
19966;DHT22;10144;50.874;4.762;2024-02-04T03:49:11;10.40;99.90
19966;DHT22;10144;50.874;4.762;2024-02-04T03:51:40;10.50;99.90
19966;DHT22;10144;50.874;4.762;2024-02-04T03:54:12;10.50;99.90
19966;DHT22;10144;50.874;4.762;2024-02-04T03:56:38;10.50;99.90
19966;DHT22;10144;50.874;4.762;2024-02-04T03:59:07;10.50;99.90
19966;DHT22;10144;50.874;4.762;2024-02-04T04:01:39;10.50;99.90
19966;DHT22;10144;50.874;4.762;2024-02-04T04:04:19;10.60;99.90
19966;DHT22;10144;50.874;4.762;2024-02-04T04:06:51;10.60;99.90
19966;DHT22;10144;50.874;4.762;2024-02-04T04:09:20;10.60;99.90
19966;DHT22;10144;50.874;4.762;2024-02-04T04:11:51;10.50;99.90
19966;DHT22;10144;50.874;4.762;2024-02-04T04:14:17;10.50;99.90
19966;DHT22;10144;50.874;4.762;2024-02-04T04:16:57;10.60;99.90
19966;DHT22;10144;50.874;4.762;2024-02-04T04:19:26;10.50;99.90
19966;DHT22;10144;50.874;4.762;2024-02-04T04:21:51;10.50;99.90
19966;DHT22;10144;50.874;4.762;2024-02-04T04:24:20;10.60;99.90
19966;DHT22;10144;50.874;4.762;2024-02-04T04:27:03;10.60;99.90
19966;DHT22;10144;50.874;4.762;2024-02-04T04:29:32;10.60;99.90
19966;DHT22;10144;50.874;4.762;2024-02-04T04:31:58;10.70;99.90
19966;DHT22;10144;50.874;4.762;2024-02-04T04:34:27;10.70;99.90
19966;DHT22;10144;50.874;4.762;2024-02-04T04:36:56;10.60;99.90
19966;DHT22;10144;50.874;4.762;2024-02-04T04:39:25;10.70;99.90
19966;DHT22;10144;50.874;4.762;2024-02-04T04:41:57;10.80;99.90
19966;DHT22;10144;50.874;4.762;2024-02-04T04:44:51;10.80;99.90
19966;DHT22;10144;50.874;4.762;2024-02-04T04:47:18;10.70;99.90
19966;DHT22;10144;50.874;4.762;2024-02-04T04:49:47;10.70;99.90
19966;DHT22;10144;50.874;4.762;2024-02-04T04:52:35;10.60;99.90
19966;DHT22;10144;50.874;4.762;2024-02-04T04:55:04;10.50;99.90
19966;DHT22;10144;50.874;4.762;2024-02-04T04:57:32;10.60;99.90
19966;DHT22;10144;50.874;4.762;2024-02-04T05:00:15;10.60;99.90
19966;DHT22;10144;50.874;4.762;2024-02-04T05:02:51;10.50;99.90
19966;DHT22;10144;50.874;4.762;2024-02-04T05:05:17;10.60;99.90
19966;DHT22;10144;50.874;4.762;2024-02-04T05:07:46;10.50;99.90
19966;DHT22;10144;50.874;4.762;2024-02-04T05:10:12;10.50;99.90
19966;DHT22;10144;50.874;4.762;2024-02-04T05:12:39;10.60;99.90
19966;DHT22;10144;50.874;4.762;2024-02-04T05:15:08;10.60;99.90
19966;DHT22;10144;50.874;4.762;2024-02-04T05:17:34;10.50;99.90
19966;DHT22;10144;50.874;4.762;2024-02-04T05:20:02;10.50;99.90
19966;DHT22;10144;50.874;4.762;2024-02-04T05:22:31;10.50;99.90
19966;DHT22;10144;50.874;4.762;2024-02-04T05:25:06;10.60;99.90
19966;DHT22;10144;50.874;4.762;2024-02-04T05:27:52;10.50;99.90
19966;DHT22;10144;50.874;4.762;2024-02-04T05:30:21;10.50;99.90
19966;DHT22;10144;50.874;4.762;2024-02-04T05:32:48;10.50;99.90
19966;DHT22;10144;50.874;4.762;2024-02-04T05:35:14;10.50;99.90
19966;DHT22;10144;50.874;4.762;2024-02-04T05:38:02;10.50;99.90
19966;DHT22;10144;50.874;4.762;2024-02-04T05:40:31;10.40;99.90
19966;DHT22;10144;50.874;4.762;2024-02-04T05:43:03;10.40;99.90
19966;DHT22;10144;50.874;4.762;2024-02-04T05:45:48;10.40;99.90
19966;DHT22;10144;50.874;4.762;2024-02-04T05:48:20;10.40;99.90
19966;DHT22;10144;50.874;4.762;2024-02-04T05:50:48;10.40;99.90
19966;DHT22;10144;50.874;4.762;2024-02-04T05:53:27;10.40;99.90
19966;DHT22;10144;50.874;4.762;2024-02-04T05:55:57;10.50;99.90
19966;DHT22;10144;50.874;4.762;2024-02-04T05:58:31;10.50;99.90
19966;DHT22;10144;50.874;4.762;2024-02-04T06:01:08;10.50;99.90
19966;DHT22;10144;50.874;4.762;2024-02-04T06:03:36;10.50;99.90
19966;DHT22;10144;50.874;4.762;2024-02-04T06:06:13;10.50;99.90
19966;DHT22;10144;50.874;4.762;2024-02-04T06:08:44;10.60;99.90
19966;DHT22;10144;50.874;4.762;2024-02-04T06:11:20;10.60;99.90
19966;DHT22;10144;50.874;4.762;2024-02-04T06:14:11;10.60;99.90
19966;DHT22;10144;50.874;4.762;2024-02-04T06:16:58;10.60;99.90
19966;DHT22;10144;50.874;4.762;2024-02-04T06:22:33;10.60;99.90
19966;DHT22;10144;50.874;4.762;2024-02-04T06:25:02;10.60;99.90
19966;DHT22;10144;50.874;4.762;2024-02-04T06:27:36;10.60;99.90
19966;DHT22;10144;50.874;4.762;2024-02-04T06:30:01;10.50;99.90
19966;DHT22;10144;50.874;4.762;2024-02-04T06:32:54;10.60;99.90
19966;DHT22;10144;50.874;4.762;2024-02-04T06:35:25;10.60;99.90
19966;DHT22;10144;50.874;4.762;2024-02-04T06:37:51;10.50;99.90
19966;DHT22;10144;50.874;4.762;2024-02-04T06:40:23;10.50;99.90
19966;DHT22;10144;50.874;4.762;2024-02-04T06:42:52;10.50;99.90
19966;DHT22;10144;50.874;4.762;2024-02-04T06:45:20;10.40;99.90
19966;DHT22;10144;50.874;4.762;2024-02-04T06:47:49;10.40;99.90
19966;DHT22;10144;50.874;4.762;2024-02-04T06:50:20;10.40;99.90
19966;DHT22;10144;50.874;4.762;2024-02-04T06:52:50;10.50;99.90
19966;DHT22;10144;50.874;4.762;2024-02-04T06:55:17;10.40;99.90
19966;DHT22;10144;50.874;4.762;2024-02-04T06:57:53;10.40;99.90
19966;DHT22;10144;50.874;4.762;2024-02-04T07:00:20;10.50;99.90
19966;DHT22;10144;50.874;4.762;2024-02-04T07:02:56;10.40;99.90
19966;DHT22;10144;50.874;4.762;2024-02-04T07:05:28;10.50;99.90
19966;DHT22;10144;50.874;4.762;2024-02-04T07:07:57;10.40;99.90
19966;DHT22;10144;50.874;4.762;2024-02-04T07:10:26;10.40;99.90
19966;DHT22;10144;50.874;4.762;2024-02-04T07:12:51;10.30;99.90
19966;DHT22;10144;50.874;4.762;2024-02-04T07:15:20;10.30;99.90
19966;DHT22;10144;50.874;4.762;2024-02-04T07:17:49;10.30;99.90
19966;DHT22;10144;50.874;4.762;2024-02-04T07:20:18;10.30;99.90
19966;DHT22;10144;50.874;4.762;2024-02-04T07:22:48;10.30;99.90
19966;DHT22;10144;50.874;4.762;2024-02-04T07:25:14;10.30;99.90
19966;DHT22;10144;50.874;4.762;2024-02-04T07:27:44;10.30;99.90
19966;DHT22;10144;50.874;4.762;2024-02-04T07:30:12;10.40;99.90
19966;DHT22;10144;50.874;4.762;2024-02-04T07:32:41;10.40;99.90
19966;DHT22;10144;50.874;4.762;2024-02-04T07:35:13;10.40;99.90
19966;DHT22;10144;50.874;4.762;2024-02-04T07:37:42;10.40;99.90
19966;DHT22;10144;50.874;4.762;2024-02-04T07:40:12;10.30;99.90
19966;DHT22;10144;50.874;4.762;2024-02-04T07:42:37;10.40;99.90
19966;DHT22;10144;50.874;4.762;2024-02-04T07:45:12;10.40;99.90
19966;DHT22;10144;50.874;4.762;2024-02-04T07:47:49;10.40;99.90
19966;DHT22;10144;50.874;4.762;2024-02-04T07:50:27;10.40;99.90
19966;DHT22;10144;50.874;4.762;2024-02-04T07:53:13;10.50;99.90
19966;DHT22;10144;50.874;4.762;2024-02-04T07:55:42;10.40;99.90
19966;DHT22;10144;50.874;4.762;2024-02-04T07:58:11;10.40;99.90
19966;DHT22;10144;50.874;4.762;2024-02-04T08:01:14;10.50;99.90
19966;DHT22;10144;50.874;4.762;2024-02-04T08:03:40;10.60;99.90
19966;DHT22;10144;50.874;4.762;2024-02-04T08:06:22;10.60;99.90
19966;DHT22;10144;50.874;4.762;2024-02-04T08:08:50;10.60;99.90
19966;DHT22;10144;50.874;4.762;2024-02-04T08:11:20;10.60;99.90
19966;DHT22;10144;50.874;4.762;2024-02-04T08:13:49;10.50;99.90
19966;DHT22;10144;50.874;4.762;2024-02-04T08:16:21;10.60;99.90
19966;DHT22;10144;50.874;4.762;2024-02-04T08:18:50;10.60;99.90
19966;DHT22;10144;50.874;4.762;2024-02-04T08:21:19;10.60;99.90
19966;DHT22;10144;50.874;4.762;2024-02-04T08:23:48;10.60;99.90
19966;DHT22;10144;50.874;4.762;2024-02-04T08:26:14;10.60;99.90
19966;DHT22;10144;50.874;4.762;2024-02-04T08:28:41;10.70;99.90
19966;DHT22;10144;50.874;4.762;2024-02-04T08:31:08;10.70;99.90
19966;DHT22;10144;50.874;4.762;2024-02-04T08:33:38;10.70;99.90
19966;DHT22;10144;50.874;4.762;2024-02-04T08:36:12;10.70;99.90
19966;DHT22;10144;50.874;4.762;2024-02-04T08:38:41;10.60;99.90
19966;DHT22;10144;50.874;4.762;2024-02-04T08:41:10;10.60;99.90
19966;DHT22;10144;50.874;4.762;2024-02-04T08:43:51;10.70;99.90
19966;DHT22;10144;50.874;4.762;2024-02-04T08:46:20;10.70;99.90
19966;DHT22;10144;50.874;4.762;2024-02-04T08:48:46;10.70;99.90
19966;DHT22;10144;50.874;4.762;2024-02-04T08:51:13;10.80;99.90
19966;DHT22;10144;50.874;4.762;2024-02-04T08:53:44;10.80;99.90
19966;DHT22;10144;50.874;4.762;2024-02-04T08:56:13;10.80;99.90
19966;DHT22;10144;50.874;4.762;2024-02-04T08:59:04;10.80;99.90
19966;DHT22;10144;50.874;4.762;2024-02-04T09:01:34;10.80;99.90
19966;DHT22;10144;50.874;4.762;2024-02-04T09:04:02;10.80;99.90
19966;DHT22;10144;50.874;4.762;2024-02-04T09:06:28;10.80;99.90
19966;DHT22;10144;50.874;4.762;2024-02-04T09:09:08;10.90;99.90
19966;DHT22;10144;50.874;4.762;2024-02-04T09:11:39;10.90;99.90
19966;DHT22;10144;50.874;4.762;2024-02-04T09:14:08;10.80;99.90
19966;DHT22;10144;50.874;4.762;2024-02-04T09:16:33;10.90;99.90
19966;DHT22;10144;50.874;4.762;2024-02-04T09:18:59;10.90;99.90
19966;DHT22;10144;50.874;4.762;2024-02-04T09:21:29;11.10;99.90
19966;DHT22;10144;50.874;4.762;2024-02-04T09:24:13;11.10;99.90
19966;DHT22;10144;50.874;4.762;2024-02-04T09:26:40;11.10;99.90
19966;DHT22;10144;50.874;4.762;2024-02-04T09:29:09;11.20;99.90
19966;DHT22;10144;50.874;4.762;2024-02-04T09:31:39;11.30;99.90
19966;DHT22;10144;50.874;4.762;2024-02-04T09:34:14;11.40;99.90
19966;DHT22;10144;50.874;4.762;2024-02-04T09:36:43;11.40;99.90
19966;DHT22;10144;50.874;4.762;2024-02-04T09:39:14;11.40;99.90
19966;DHT22;10144;50.874;4.762;2024-02-04T09:41:43;11.40;99.90
19966;DHT22;10144;50.874;4.762;2024-02-04T09:44:15;11.40;99.90
19966;DHT22;10144;50.874;4.762;2024-02-04T09:46:44;11.40;99.90
19966;DHT22;10144;50.874;4.762;2024-02-04T09:49:13;11.40;99.90
19966;DHT22;10144;50.874;4.762;2024-02-04T09:51:42;11.40;99.90
19966;DHT22;10144;50.874;4.762;2024-02-04T09:54:15;11.30;99.90
19966;DHT22;10144;50.874;4.762;2024-02-04T09:56:44;11.30;99.90
19966;DHT22;10144;50.874;4.762;2024-02-04T09:59:11;11.20;99.90
19966;DHT22;10144;50.874;4.762;2024-02-04T10:01:36;11.30;99.90
19966;DHT22;10144;50.874;4.762;2024-02-04T10:04:06;11.30;99.90
19966;DHT22;10144;50.874;4.762;2024-02-04T10:06:31;11.20;99.90
19966;DHT22;10144;50.874;4.762;2024-02-04T10:09:00;11.20;99.90
19966;DHT22;10144;50.874;4.762;2024-02-04T10:11:26;11.30;99.90
19966;DHT22;10144;50.874;4.762;2024-02-04T10:13:53;11.20;99.90
19966;DHT22;10144;50.874;4.762;2024-02-04T10:16:22;11.20;99.90
19966;DHT22;10144;50.874;4.762;2024-02-04T10:18:56;11.20;99.90
19966;DHT22;10144;50.874;4.762;2024-02-04T10:21:25;11.10;99.90
19966;DHT22;10144;50.874;4.762;2024-02-04T10:23:51;11.20;99.90
19966;DHT22;10144;50.874;4.762;2024-02-04T10:26:18;11.10;99.90
19966;DHT22;10144;50.874;4.762;2024-02-04T10:28:57;11.00;99.90
19966;DHT22;10144;50.874;4.762;2024-02-04T10:31:37;11.00;99.90
19966;DHT22;10144;50.874;4.762;2024-02-04T10:34:06;11.10;99.90
19966;DHT22;10144;50.874;4.762;2024-02-04T10:36:32;11.10;99.90
19966;DHT22;10144;50.874;4.762;2024-02-04T10:39:01;11.20;99.90
19966;DHT22;10144;50.874;4.762;2024-02-04T10:41:29;11.20;99.90
19966;DHT22;10144;50.874;4.762;2024-02-04T10:43:58;11.30;99.90
19966;DHT22;10144;50.874;4.762;2024-02-04T10:46:33;11.30;99.90
19966;DHT22;10144;50.874;4.762;2024-02-04T10:49:10;11.40;99.90
19966;DHT22;10144;50.874;4.762;2024-02-04T10:51:42;11.40;99.90
19966;DHT22;10144;50.874;4.762;2024-02-04T10:54:15;11.50;99.90
19966;DHT22;10144;50.874;4.762;2024-02-04T10:57:05;11.60;99.90
19966;DHT22;10144;50.874;4.762;2024-02-04T10:59:33;11.70;99.90
19966;DHT22;10144;50.874;4.762;2024-02-04T11:02:07;11.80;99.90
19966;DHT22;10144;50.874;4.762;2024-02-04T11:04:34;11.90;99.90
19966;DHT22;10144;50.874;4.762;2024-02-04T11:07:04;11.80;99.90
19966;DHT22;10144;50.874;4.762;2024-02-04T11:09:33;11.70;99.90
19966;DHT22;10144;50.874;4.762;2024-02-04T11:12:06;11.80;99.90
19966;DHT22;10144;50.874;4.762;2024-02-04T11:14:33;11.80;99.90
19966;DHT22;10144;50.874;4.762;2024-02-04T11:23:13;11.80;99.90
19966;DHT22;10144;50.874;4.762;2024-02-04T11:26:11;11.80;99.90
19966;DHT22;10144;50.874;4.762;2024-02-04T11:28:38;11.80;99.90
19966;DHT22;10144;50.874;4.762;2024-02-04T11:31:19;11.70;99.90
19966;DHT22;10144;50.874;4.762;2024-02-04T11:34:04;11.70;99.90
19966;DHT22;10144;50.874;4.762;2024-02-04T11:36:38;11.70;99.90
19966;DHT22;10144;50.874;4.762;2024-02-04T11:39:13;11.70;99.90
19966;DHT22;10144;50.874;4.762;2024-02-04T11:41:49;11.70;99.90
19966;DHT22;10144;50.874;4.762;2024-02-04T11:44:23;11.70;99.90
19966;DHT22;10144;50.874;4.762;2024-02-04T11:47:00;11.70;99.90
19966;DHT22;10144;50.874;4.762;2024-02-04T11:49:36;11.70;99.90
19966;DHT22;10144;50.874;4.762;2024-02-04T11:52:03;11.70;99.90
19966;DHT22;10144;50.874;4.762;2024-02-04T11:54:32;11.80;99.90
19966;DHT22;10144;50.874;4.762;2024-02-04T11:57:11;11.80;99.90
19966;DHT22;10144;50.874;4.762;2024-02-04T11:59:56;11.80;99.90
19966;DHT22;10144;50.874;4.762;2024-02-04T12:02:25;11.80;99.90
19966;DHT22;10144;50.874;4.762;2024-02-04T12:04:54;11.70;99.90
19966;DHT22;10144;50.874;4.762;2024-02-04T12:07:32;11.60;99.90
19966;DHT22;10144;50.874;4.762;2024-02-04T12:09:57;11.60;99.90
19966;DHT22;10144;50.874;4.762;2024-02-04T12:12:24;11.50;99.90
19966;DHT22;10144;50.874;4.762;2024-02-04T12:14:52;11.60;99.90
19966;DHT22;10144;50.874;4.762;2024-02-04T12:17:21;11.60;99.90
19966;DHT22;10144;50.874;4.762;2024-02-04T12:19:52;11.60;99.90
19966;DHT22;10144;50.874;4.762;2024-02-04T12:22:18;11.60;99.90
19966;DHT22;10144;50.874;4.762;2024-02-04T12:24:47;11.60;99.90
19966;DHT22;10144;50.874;4.762;2024-02-04T12:27:16;11.70;99.90
19966;DHT22;10144;50.874;4.762;2024-02-04T12:29:55;11.80;99.90
19966;DHT22;10144;50.874;4.762;2024-02-04T12:32:24;11.90;99.90
19966;DHT22;10144;50.874;4.762;2024-02-04T12:34:52;11.90;99.90
19966;DHT22;10144;50.874;4.762;2024-02-04T12:37:31;12.00;99.90
19966;DHT22;10144;50.874;4.762;2024-02-04T12:40:02;11.90;99.90
19966;DHT22;10144;50.874;4.762;2024-02-04T12:42:31;11.90;99.90
19966;DHT22;10144;50.874;4.762;2024-02-04T12:44:57;11.80;99.90
19966;DHT22;10144;50.874;4.762;2024-02-04T12:47:30;11.80;99.90
19966;DHT22;10144;50.874;4.762;2024-02-04T12:50:06;11.80;99.90
19966;DHT22;10144;50.874;4.762;2024-02-04T12:52:49;11.90;99.90
19966;DHT22;10144;50.874;4.762;2024-02-04T12:55:26;11.90;99.90
19966;DHT22;10144;50.874;4.762;2024-02-04T12:58:12;11.80;99.90
19966;DHT22;10144;50.874;4.762;2024-02-04T13:01:00;11.80;99.90
19966;DHT22;10144;50.874;4.762;2024-02-04T13:03:44;11.70;99.90
19966;DHT22;10144;50.874;4.762;2024-02-04T13:06:12;11.60;99.90
19966;DHT22;10144;50.874;4.762;2024-02-04T13:08:41;11.70;99.90
19966;DHT22;10144;50.874;4.762;2024-02-04T13:11:10;11.70;99.90
19966;DHT22;10144;50.874;4.762;2024-02-04T13:13:36;11.80;99.90
19966;DHT22;10144;50.874;4.762;2024-02-04T13:16:05;11.90;99.90
19966;DHT22;10144;50.874;4.762;2024-02-04T13:18:41;11.90;99.90
19966;DHT22;10144;50.874;4.762;2024-02-04T13:21:10;11.80;99.90
19966;DHT22;10144;50.874;4.762;2024-02-04T13:23:36;11.90;99.90
19966;DHT22;10144;50.874;4.762;2024-02-04T13:26:05;11.90;99.90
19966;DHT22;10144;50.874;4.762;2024-02-04T13:28:45;11.90;99.90
19966;DHT22;10144;50.874;4.762;2024-02-04T13:31:11;11.90;99.90
19966;DHT22;10144;50.874;4.762;2024-02-04T13:33:41;11.90;99.90
19966;DHT22;10144;50.874;4.762;2024-02-04T13:36:17;12.00;99.90
19966;DHT22;10144;50.874;4.762;2024-02-04T13:39:09;12.00;99.90
19966;DHT22;10144;50.874;4.762;2024-02-04T13:41:36;12.10;99.90
19966;DHT22;10144;50.874;4.762;2024-02-04T13:44:04;12.10;99.90
19966;DHT22;10144;50.874;4.762;2024-02-04T13:46:40;12.10;99.90
19966;DHT22;10144;50.874;4.762;2024-02-04T13:49:09;12.20;99.90
19966;DHT22;10144;50.874;4.762;2024-02-04T13:51:39;12.20;99.90
19966;DHT22;10144;50.874;4.762;2024-02-04T13:54:35;12.10;99.90
19966;DHT22;10144;50.874;4.762;2024-02-04T13:57:01;12.20;99.90
19966;DHT22;10144;50.874;4.762;2024-02-04T13:59:37;12.20;99.90
19966;DHT22;10144;50.874;4.762;2024-02-04T14:02:22;12.40;99.90
19966;DHT22;10144;50.874;4.762;2024-02-04T14:04:51;12.30;99.90
19966;DHT22;10144;50.874;4.762;2024-02-04T14:07:21;12.20;99.90
19966;DHT22;10144;50.874;4.762;2024-02-04T14:09:46;12.00;99.90
19966;DHT22;10144;50.874;4.762;2024-02-04T14:12:31;11.90;99.90
19966;DHT22;10144;50.874;4.762;2024-02-04T14:15:00;11.90;99.90
19966;DHT22;10144;50.874;4.762;2024-02-04T14:17:29;11.90;99.90
19966;DHT22;10144;50.874;4.762;2024-02-04T14:19:58;12.00;99.90
19966;DHT22;10144;50.874;4.762;2024-02-04T14:22:27;11.90;99.90
19966;DHT22;10144;50.874;4.762;2024-02-04T14:24:59;11.80;99.90
19966;DHT22;10144;50.874;4.762;2024-02-04T14:27:25;11.70;99.90
19966;DHT22;10144;50.874;4.762;2024-02-04T14:29:59;11.60;99.90
19966;DHT22;10144;50.874;4.762;2024-02-04T14:32:28;11.70;99.90
19966;DHT22;10144;50.874;4.762;2024-02-04T14:34:56;11.70;99.90
19966;DHT22;10144;50.874;4.762;2024-02-04T14:37:29;11.60;99.90
19966;DHT22;10144;50.874;4.762;2024-02-04T14:39:58;11.60;99.90
19966;DHT22;10144;50.874;4.762;2024-02-04T14:42:28;11.50;99.90
19966;DHT22;10144;50.874;4.762;2024-02-04T14:44:57;11.30;99.90
19966;DHT22;10144;50.874;4.762;2024-02-04T14:47:25;11.30;99.90
19966;DHT22;10144;50.874;4.762;2024-02-04T14:50:04;11.30;99.90
19966;DHT22;10144;50.874;4.762;2024-02-04T14:52:31;11.30;99.90
19966;DHT22;10144;50.874;4.762;2024-02-04T14:54:57;11.30;99.90
19966;DHT22;10144;50.874;4.762;2024-02-04T14:57:26;11.30;99.90
19966;DHT22;10144;50.874;4.762;2024-02-04T14:59:52;11.30;99.90
19966;DHT22;10144;50.874;4.762;2024-02-04T15:02:22;11.30;99.90
19966;DHT22;10144;50.874;4.762;2024-02-04T15:04:48;11.20;99.90
19966;DHT22;10144;50.874;4.762;2024-02-04T15:07:14;11.10;99.90
19966;DHT22;10144;50.874;4.762;2024-02-04T15:09:39;11.10;99.90
19966;DHT22;10144;50.874;4.762;2024-02-04T15:12:17;11.10;99.90
19966;DHT22;10144;50.874;4.762;2024-02-04T15:14:47;11.10;99.90
19966;DHT22;10144;50.874;4.762;2024-02-04T15:17:19;11.10;99.90
19966;DHT22;10144;50.874;4.762;2024-02-04T15:19:49;11.20;99.90
19966;DHT22;10144;50.874;4.762;2024-02-04T15:22:17;11.30;99.90
19966;DHT22;10144;50.874;4.762;2024-02-04T15:24:50;11.20;99.90
19966;DHT22;10144;50.874;4.762;2024-02-04T15:27:19;11.10;99.90
19966;DHT22;10144;50.874;4.762;2024-02-04T15:29:50;11.20;99.90
19966;DHT22;10144;50.874;4.762;2024-02-04T15:32:33;11.20;99.90
19966;DHT22;10144;50.874;4.762;2024-02-04T15:35:21;11.30;99.90
19966;DHT22;10144;50.874;4.762;2024-02-04T15:37:59;11.20;99.90
19966;DHT22;10144;50.874;4.762;2024-02-04T15:40:28;11.10;99.90
19966;DHT22;10144;50.874;4.762;2024-02-04T15:42:57;11.10;99.90
19966;DHT22;10144;50.874;4.762;2024-02-04T15:45:26;11.10;99.90
19966;DHT22;10144;50.874;4.762;2024-02-04T15:48:05;11.00;99.90
19966;DHT22;10144;50.874;4.762;2024-02-04T15:50:32;11.10;99.90
19966;DHT22;10144;50.874;4.762;2024-02-04T15:53:04;11.00;99.90
19966;DHT22;10144;50.874;4.762;2024-02-04T15:55:36;10.90;99.90
19966;DHT22;10144;50.874;4.762;2024-02-04T15:58:09;11.00;99.90
19966;DHT22;10144;50.874;4.762;2024-02-04T16:00:36;11.10;99.90
19966;DHT22;10144;50.874;4.762;2024-02-04T16:03:04;11.00;99.90
19966;DHT22;10144;50.874;4.762;2024-02-04T16:05:31;10.90;99.90
19966;DHT22;10144;50.874;4.762;2024-02-04T16:08:06;11.00;99.90
19966;DHT22;10144;50.874;4.762;2024-02-04T16:10:35;11.00;99.90
19966;DHT22;10144;50.874;4.762;2024-02-04T16:13:06;11.10;99.90
19966;DHT22;10144;50.874;4.762;2024-02-04T16:15:38;11.10;99.90
19966;DHT22;10144;50.874;4.762;2024-02-04T16:18:08;11.20;99.90
19966;DHT22;10144;50.874;4.762;2024-02-04T16:20:37;11.00;99.90
19966;DHT22;10144;50.874;4.762;2024-02-04T16:23:07;11.00;99.90
19966;DHT22;10144;50.874;4.762;2024-02-04T16:25:36;11.00;99.90
19966;DHT22;10144;50.874;4.762;2024-02-04T16:28:05;11.00;99.90